Terminal Aerodrome Forecast
Issued by NWS

Home | Current Version | Previous Version | Text Only | Print | Product List | Glossary On
Versions: 1 2 3 4 5 6 7 8 9 10 11 12 13 14 15 16 17 18 19 20 21 22 23 24 25 26 27 28
000
FTUS42 KJAX 240200 AAC
TAFVQQ
TAF AMD
KVQQ 240248Z 2403/2424 36008KT P6SM VCSH SCT020 BKN035
      TEMPO 2404/2408 BKN010
     FM240800 36009KT P6SM SCT008 BKN010
     FM241500 02011G16KT P6SM SCT010 BKN025=

USA.gov is the U.S. government's official web portal to all federal, state and local government web resources and services.